Time;durP1;ratioP1;P1;durP2;ratioP2;P2;SDS_P1;SDS_P2;PMS_P1;PMS_P2;Temp;Humidity;BMP_temperature;BMP_pressure;BME280_temperature;BME280_humidity;BME280_pressure;Samples;Min_cycle;Max_cycle;Signal;HPM_P1;HPM_P2
2022/10/25 00:01:26;;;;;;;35.78;21.20;;;;;;;11.34;99.43;100462.62;1755871;79;21049;-70
2022/10/25 00:03:54;;;;;;;36.93;21.10;;;;;;;11.33;99.53;100451.86;1781621;79;21029;-70
2022/10/25 00:06:25;;;;;;;35.80;20.82;;;;;;;11.34;99.50;100451.66;1798761;79;21096;-69
2022/10/25 00:08:53;;;;;;;37.42;21.90;;;;;;;11.30;99.47;100454.48;1787302;78;21007;-69
2022/10/25 00:11:25;;;;;;;40.28;21.75;;;;;;;11.29;99.49;100456.05;1791843;79;21022;-68
2022/10/25 00:13:59;;;;;;;38.13;22.30;;;;;;;11.25;99.56;100448.75;1764513;79;21559;-70
2022/10/25 00:16:32;;;;;;;38.80;23.12;;;;;;;11.24;99.71;100448.95;1757349;79;21472;-68
2022/10/25 00:19:01;;;;;;;37.58;22.25;;;;;;;11.22;99.75;100441.45;1779264;79;21096;-69
2022/10/25 00:21:30;;;;;;;36.58;21.97;;;;;;;11.22;99.76;100436.81;1763348;79;21019;-69
2022/10/25 00:24:00;;;;;;;37.70;21.73;;;;;;;11.21;99.75;100437.02;1747034;80;21052;-68
2022/10/25 00:26:30;;;;;;;38.60;22.82;;;;;;;11.18;99.73;100437.41;1794015;79;21503;-70
2022/10/25 00:29:05;;;;;;;36.38;22.27;;;;;;;11.14;99.77;100432.85;1750952;80;21473;-69
2022/10/25 00:31:37;;;;;;;34.98;21.35;;;;;;;11.11;99.87;100431.88;1791684;79;21030;-68
2022/10/25 00:34:06;;;;;;;37.03;21.62;;;;;;;11.10;100.00;100429.66;1789833;78;21081;-68
2022/10/25 00:36:35;;;;;;;35.48;21.37;;;;;;;11.12;100.00;100428.09;1787591;79;21003;-70
2022/10/25 00:39:04;;;;;;;34.60;20.82;;;;;;;11.11;100.00;100425.88;1778069;79;21550;-69
2022/10/25 00:41:33;;;;;;;36.98;21.70;;;;;;;11.12;100.00;100429.47;1796516;78;21052;-68
2022/10/25 00:44:40;;;;;;;35.85;21.42;;;;;;;11.11;100.00;100427.25;1771016;79;21049;-69
2022/10/25 00:47:20;;;;;;;33.18;21.07;;;;;;;11.11;100.00;100420.39;1780588;79;20994;-70
2022/10/25 00:50:24;;;;;;;32.90;20.82;;;;;;;11.08;100.00;100420.80;1775406;79;21066;-69
2022/10/25 00:52:54;;;;;;;38.08;21.87;;;;;;;11.04;100.00;100419.47;1768618;79;21029;-69
2022/10/25 00:55:24;;;;;;;42.67;23.52;;;;;;;11.04;100.00;100423.58;1783321;78;21118;-68
2022/10/25 00:58:05;;;;;;;41.73;23.47;;;;;;;11.04;100.00;100413.98;1768935;79;21013;-69
2022/10/25 01:00:35;;;;;;;43.90;23.80;;;;;;;11.06;100.00;100406.96;1796456;79;21038;-69
2022/10/25 01:03:04;;;;;;;43.38;25.30;;;;;;;11.05;100.00;100410.72;1786334;79;21017;-69
2022/10/25 01:05:34;;;;;;;39.30;24.35;;;;;;;11.04;100.00;100407.13;1736275;79;21459;-68
2022/10/25 01:08:04;;;;;;;39.95;23.07;;;;;;;11.05;100.00;100405.23;1797650;78;21488;-70
2022/10/25 01:10:37;;;;;;;39.05;22.22;;;;;;;11.04;100.00;100396.69;1782905;78;21033;-69
2022/10/25 01:13:06;;;;;;;35.20;22.13;;;;;;;11.04;100.00;100396.16;1750707;79;21023;-70
2022/10/25 01:15:47;;;;;;;39.70;23.10;;;;;;;11.03;100.00;100399.95;1791859;78;21057;-69
2022/10/25 01:18:22;;;;;;;36.10;23.52;;;;;;;11.03;100.00;100398.58;1772359;79;21478;-69
2022/10/25 01:21:20;;;;;;;34.83;21.75;;;;;;;11.01;100.00;100395.72;1777741;79;21104;-70
2022/10/25 01:24:10;;;;;;;38.42;21.80;;;;;;;10.99;100.00;100386.33;1776255;79;21035;-69
2022/10/25 01:26:51;;;;;;;38.55;22.20;;;;;;;10.99;100.00;100380.84;1774533;79;21121;-68
2022/10/25 01:30:04;;;;;;;37.40;22.02;;;;;;;10.99;100.00;100378.62;1774526;79;21097;-69
2022/10/25 01:32:50;;;;;;;34.85;21.82;;;;;;;10.97;100.00;100378.82;1766012;79;21031;-68
2022/10/25 01:35:33;;;;;;;34.33;20.45;;;;;;;10.95;100.00;100378.17;1779157;79;21080;-68
2022/10/25 01:38:33;;;;;;;34.73;20.92;;;;;;;10.92;100.00;100383.21;1787880;78;20968;-69
2022/10/25 01:41:16;;;;;;;32.95;20.65;;;;;;;10.88;100.00;100379.18;1795467;79;21020;-70
2022/10/25 01:44:15;;;;;;;35.28;19.77;;;;;;;10.84;100.00;100385.59;1761602;79;21074;-69
2022/10/25 01:47:09;;;;;;;36.35;20.75;;;;;;;10.82;100.00;100379.45;1788889;79;21003;-67
2022/10/25 01:49:55;;;;;;;33.53;19.65;;;;;;;10.78;100.00;100371.31;1764683;80;21043;-69
2022/10/25 01:52:24;;;;;;;37.15;19.90;;;;;;;10.75;100.00;100374.45;1762665;79;21041;-68
2022/10/25 01:54:55;;;;;;;33.18;19.70;;;;;;;10.72;100.00;100379.80;1786489;79;21036;-68
2022/10/25 01:58:14;;;;;;;35.78;19.42;;;;;;;10.69;100.00;100371.14;1781049;78;21045;-69
2022/10/25 02:00:50;;;;;;;32.48;19.57;;;;;;;10.66;100.00;100378.38;1783419;79;21414;-69
2022/10/25 02:03:29;;;;;;;34.78;19.50;;;;;;;10.62;100.00;100374.34;1762558;79;21062;-68
2022/10/25 02:06:06;;;;;;;31.30;18.65;;;;;;;10.58;100.00;100375.80;1777342;79;21466;-69
2022/10/25 02:08:55;;;;;;;31.90;18.17;;;;;;;10.56;100.00;100371.03;1772998;79;21054;-67
2022/10/25 02:11:29;;;;;;;30.92;19.23;;;;;;;10.50;100.00;100367.72;1720867;79;21042;-69
2022/10/25 02:14:21;;;;;;;31.12;19.37;;;;;;;10.47;100.00;100370.33;1762724;80;20975;-68
2022/10/25 02:17:11;;;;;;;31.70;19.00;;;;;;;10.42;100.00;100364.59;1786494;79;21466;-68
2022/10/25 02:19:52;;;;;;;31.45;18.07;;;;;;;10.38;100.00;100376.44;1768621;79;21007;-67
2022/10/25 02:22:23;;;;;;;31.55;17.32;;;;;;;10.36;100.00;100379.05;1774269;79;21007;-70
2022/10/25 02:24:52;;;;;;;29.42;18.42;;;;;;;10.34;100.00;100369.66;1771730;79;21505;-67
2022/10/25 02:27:22;;;;;;;33.65;20.35;;;;;;;10.36;100.00;100372.20;1770022;79;21013;-69
2022/10/25 02:29:51;;;;;;;32.83;18.48;;;;;;;10.37;100.00;100366.53;1741837;80;21514;-67
2022/10/25 02:32:20;;;;;;;29.55;17.87;;;;;;;10.36;100.00;100366.20;1735919;81;21035;-69
2022/10/25 02:34:50;;;;;;;30.15;17.62;;;;;;;10.37;100.00;100361.05;1751062;81;21031;-69
2022/10/25 02:37:19;;;;;;;31.82;18.77;;;;;;;10.36;100.00;100363.98;1767689;79;21545;-68
2022/10/25 02:39:49;;;;;;;32.73;18.67;;;;;;;10.36;100.00;100370.83;1770447;79;21090;-68
2022/10/25 02:42:20;;;;;;;32.85;18.85;;;;;;;10.35;100.00;100382.31;1795650;79;21092;-68
2022/10/25 02:44:49;;;;;;;30.02;18.02;;;;;;;10.38;100.00;100379.18;1796455;79;21041;-68
2022/10/25 02:47:20;;;;;;;34.13;18.82;;;;;;;10.41;100.00;100387.55;1792085;79;21049;-68
2022/10/25 02:49:49;;;;;;;30.02;18.60;;;;;;;10.44;100.00;100388.01;1769696;79;21042;-70
2022/10/25 02:52:17;;;;;;;35.05;18.60;;;;;;;10.45;100.00;100392.44;1778734;79;21063;-68
2022/10/25 02:54:46;;;;;;;33.90;19.30;;;;;;;10.48;100.00;100383.83;1771971;79;21031;-69
2022/10/25 02:57:15;;;;;;;34.38;18.75;;;;;;;10.50;100.00;100382.78;1766594;79;21106;-68
2022/10/25 02:59:46;;;;;;;31.48;17.77;;;;;;;10.52;100.00;100397.98;1784678;79;21039;-70
2022/10/25 03:02:15;;;;;;;32.40;19.10;;;;;;;10.54;100.00;100386.30;1773614;79;20987;-68
2022/10/25 03:04:46;;;;;;;30.80;19.17;;;;;;;10.57;100.00;100396.02;1763760;79;21068;-69
2022/10/25 03:07:16;;;;;;;37.53;18.80;;;;;;;10.58;100.00;100393.59;1774658;79;21007;-69
2022/10/25 03:09:46;;;;;;;30.00;18.07;;;;;;;10.59;100.00;100390.66;1797930;78;21116;-69
2022/10/25 03:12:15;;;;;;;30.68;18.12;;;;;;;10.63;100.00;100389.22;1779167;79;21057;-69
2022/10/25 03:14:44;;;;;;;29.05;18.48;;;;;;;10.64;100.00;100387.33;1767706;79;21089;-69
2022/10/25 03:17:13;;;;;;;31.65;18.75;;;;;;;10.64;100.00;100381.33;1771021;79;21047;-69
2022/10/25 03:19:42;;;;;;;34.38;19.07;;;;;;;10.64;100.00;100379.11;1755925;79;21081;-68
2022/10/25 03:22:11;;;;;;;32.00;17.05;;;;;;;10.63;100.00;100378.78;1784607;79;21433;-69
2022/10/25 03:24:40;;;;;;;33.30;18.40;;;;;;;10.62;100.00;100375.72;1797540;79;21065;-67
2022/10/25 03:27:09;;;;;;;29.23;18.50;;;;;;;10.64;100.00;100376.36;1768470;79;21027;-70
2022/10/25 03:29:39;;;;;;;33.90;19.70;;;;;;;10.65;100.00;100369.31;1718955;81;21534;-69
2022/10/25 03:32:08;;;;;;;31.20;17.90;;;;;;;10.66;100.00;100370.16;1728579;82;21083;-66
2022/10/25 03:34:37;;;;;;;32.42;18.70;;;;;;;10.67;100.00;100366.37;1781057;79;21564;-66
2022/10/25 03:37:06;;;;;;;34.18;18.07;;;;;;;10.67;100.00;100371.33;1784276;79;21637;-68
2022/10/25 03:39:34;;;;;;;30.30;18.10;;;;;;;10.67;100.00;100370.48;1780624;79;21006;-68
2022/10/25 03:42:04;;;;;;;30.08;18.55;;;;;;;10.68;100.00;100372.19;1774732;79;21524;-69
2022/10/25 03:44:33;;;;;;;28.15;17.02;;;;;;;10.69;100.00;100376.61;1781456;79;21463;-69
2022/10/25 03:47:02;;;;;;;30.08;17.73;;;;;;;10.69;100.00;100364.28;1782716;79;21586;-68
2022/10/25 03:49:31;;;;;;;31.80;18.30;;;;;;;10.68;100.00;100361.22;1783563;79;20994;-69
2022/10/25 03:52:00;;;;;;;34.78;19.10;;;;;;;10.69;100.00;100360.17;1764678;79;21083;-69
2022/10/25 03:54:33;;;;;;;34.85;19.30;;;;;;;10.68;100.00;100363.44;1773636;78;21050;-69
2022/10/25 03:57:02;;;;;;;34.00;19.37;;;;;;;10.67;100.00;100356.27;1775059;79;21105;-68
2022/10/25 03:59:31;;;;;;;31.25;18.55;;;;;;;10.70;100.00;100357.77;1763297;80;21553;-69
2022/10/25 04:02:00;;;;;;;29.85;18.60;;;;;;;10.72;100.00;100351.03;1787895;79;21066;-69
2022/10/25 04:04:29;;;;;;;31.93;18.92;;;;;;;10.70;100.00;100351.75;1782069;79;21014;-68
2022/10/25 04:06:59;;;;;;;32.98;18.92;;;;;;;10.70;100.00;100357.77;1750450;79;20984;-69
2022/10/25 04:09:28;;;;;;;30.25;19.00;;;;;;;10.70;100.00;100349.53;1785957;78;21064;-70
2022/10/25 04:11:57;;;;;;;31.65;18.40;;;;;;;10.70;100.00;100357.23;1773261;79;21089;-69
2022/10/25 04:14:26;;;;;;;29.87;17.65;;;;;;;10.72;100.00;100346.08;1769603;78;21110;-68
2022/10/25 04:16:57;;;;;;;31.42;19.20;;;;;;;10.72;100.00;100346.08;1763895;79;21528;-69
2022/10/25 04:19:26;;;;;;;30.05;19.23;;;;;;;10.71;100.00;100349.34;1785977;79;21015;-68
2022/10/25 04:21:57;;;;;;;33.30;19.90;;;;;;;10.72;100.00;100343.34;1795908;79;21025;-69
2022/10/25 04:24:27;;;;;;;29.10;18.30;;;;;;;10.72;100.00;100337.33;1777416;79;20995;-71
2022/10/25 04:26:55;;;;;;;32.05;18.85;;;;;;;10.74;100.00;100335.77;1787355;79;20967;-70
2022/10/25 04:29:24;;;;;;;30.62;18.65;;;;;;;10.76;100.00;100340.52;1782542;79;21061;-69
2022/10/25 04:31:53;;;;;;;31.57;19.75;;;;;;;10.76;100.00;100336.41;1778638;78;21077;-69
2022/10/25 04:34:22;;;;;;;30.12;18.95;;;;;;;10.76;100.00;100334.52;1782472;79;21025;-69
2022/10/25 04:36:50;;;;;;;32.58;19.50;;;;;;;10.78;100.00;100335.68;1769802;79;21075;-69
2022/10/25 04:39:19;;;;;;;31.17;18.12;;;;;;;10.79;100.00;100340.11;1771117;79;21377;-69
2022/10/25 04:41:49;;;;;;;31.37;19.37;;;;;;;10.82;100.00;100338.86;1772935;78;21058;-70
2022/10/25 04:44:17;;;;;;;29.23;17.82;;;;;;;10.83;100.00;100329.07;1751541;79;21074;-69
2022/10/25 04:46:47;;;;;;;29.95;18.25;;;;;;;10.85;100.00;100324.76;1764551;79;21601;-69
2022/10/25 04:49:18;;;;;;;30.12;18.55;;;;;;;10.86;100.00;100320.97;1793791;79;21047;-69
2022/10/25 04:51:48;;;;;;;30.48;18.37;;;;;;;10.85;100.00;100322.02;1775558;78;21045;-69
2022/10/25 04:54:18;;;;;;;29.60;18.62;;;;;;;10.82;100.00;100319.16;1782229;78;21093;-67
2022/10/25 04:56:47;;;;;;;29.65;18.40;;;;;;;10.81;100.00;100322.95;1768119;79;21034;-69
2022/10/25 04:59:16;;;;;;;32.20;18.48;;;;;;;10.82;100.00;100319.16;1718747;81;21101;-69
2022/10/25 05:01:45;;;;;;;31.30;18.65;;;;;;;10.82;100.00;100316.94;1734464;81;21035;-70
2022/10/25 05:04:14;;;;;;;29.75;17.62;;;;;;;10.84;100.00;100320.33;1773461;79;21106;-67
2022/10/25 05:06:44;;;;;;;34.92;19.75;;;;;;;10.84;100.00;100318.43;1778471;79;21429;-69
2022/10/25 05:09:14;;;;;;;32.50;18.98;;;;;;;10.85;100.00;100316.02;1766512;79;21067;-68
2022/10/25 05:11:44;;;;;;;28.38;17.40;;;;;;;10.87;100.00;100315.28;1766107;79;21131;-67
2022/10/25 05:14:14;;;;;;;28.67;17.23;;;;;;;10.90;100.00;100312.66;1780984;79;21070;-68
2022/10/25 05:16:44;;;;;;;35.17;23.07;;;;;;;10.93;100.00;100315.00;1782994;79;21514;-68
2022/10/25 05:19:14;;;;;;;26.85;17.98;;;;;;;10.94;100.00;100318.06;1789000;80;21058;-69
2022/10/25 05:21:44;;;;;;;31.93;18.73;;;;;;;10.96;100.00;100320.08;1771511;79;21088;-71
2022/10/25 05:24:13;;;;;;;32.42;18.12;;;;;;;10.99;100.00;100323.27;1780759;79;21021;-69
2022/10/25 05:26:43;;;;;;;39.65;18.30;;;;;;;11.01;100.00;100322.54;1784220;79;21013;-69
2022/10/25 05:29:11;;;;;;;35.30;18.30;;;;;;;11.06;100.00;100320.59;1795603;79;21022;-69
2022/10/25 05:31:41;;;;;;;34.73;18.92;;;;;;;11.08;100.00;100317.12;1776372;79;21343;-71
2022/10/25 05:34:10;;;;;;;32.10;17.70;;;;;;;11.11;100.00;100308.48;1780698;78;21088;-69
2022/10/25 05:36:39;;;;;;;32.35;17.82;;;;;;;11.15;100.00;100314.41;1768920;78;21169;-69
2022/10/25 05:39:09;;;;;;;29.15;17.32;;;;;;;11.19;100.00;100312.95;1780745;79;21050;-70
2022/10/25 05:41:38;;;;;;;32.50;18.82;;;;;;;11.24;100.00;100320.89;1774527;78;20992;-68
2022/10/25 05:44:07;;;;;;;36.48;20.27;;;;;;;11.29;100.00;100327.13;1792758;78;21061;-69
2022/10/25 05:46:36;;;;;;;39.73;20.75;;;;;;;11.30;100.00;100329.67;1765304;79;21121;-69
2022/10/25 05:49:05;;;;;;;32.08;18.00;;;;;;;11.32;100.00;100330.31;1772858;79;21015;-70
2022/10/25 05:51:34;;;;;;;30.55;17.73;;;;;;;11.36;100.00;100327.48;1784424;78;21013;-67
2022/10/25 05:54:13;;;;;;;36.60;18.32;;;;;;;11.39;100.00;100328.45;1744068;79;21036;-70
2022/10/25 05:56:43;;;;;;;27.60;17.05;;;;;;;11.43;100.00;100326.14;1781313;79;21041;-70
2022/10/25 05:59:13;;;;;;;30.45;17.32;;;;;;;11.44;100.00;100327.83;1767996;79;21086;-69
2022/10/25 06:01:44;;;;;;;28.45;16.93;;;;;;;11.48;100.00;100331.01;1768102;79;21073;-71
2022/10/25 06:04:13;;;;;;;33.85;16.73;;;;;;;11.51;100.00;100326.48;1781571;79;21081;-69
2022/10/25 06:06:43;;;;;;;28.92;14.98;;;;;;;11.55;100.00;100328.61;1763893;79;21081;-70
2022/10/25 06:09:13;;;;;;;29.12;17.02;;;;;;;11.61;100.00;100333.27;1775437;78;21492;-69
2022/10/25 06:11:44;;;;;;;28.95;17.70;;;;;;;11.64;100.00;100333.39;1793264;79;21502;-70
2022/10/25 06:14:14;;;;;;;28.40;15.63;;;;;;;11.66;100.00;100329.91;1778738;78;21014;-70
2022/10/25 06:16:45;;;;;;;28.83;15.83;;;;;;;11.68;99.79;100334.14;1712388;81;21105;-70
2022/10/25 06:19:14;;;;;;;30.92;16.12;;;;;;;11.68;99.29;100326.43;1723223;81;21087;-70
2022/10/25 06:21:43;;;;;;;33.15;17.12;;;;;;;11.69;99.01;100328.97;1763448;79;21088;-69
2022/10/25 06:24:12;;;;;;;31.33;17.15;;;;;;;11.69;98.74;100324.85;1783229;78;21499;-70
2022/10/25 06:26:41;;;;;;;34.23;16.60;;;;;;;11.73;98.47;100328.06;1779239;79;21113;-70
2022/10/25 06:29:10;;;;;;;30.32;15.90;;;;;;;11.76;98.22;100323.53;1782592;79;21505;-70
2022/10/25 06:31:40;;;;;;;23.70;14.03;;;;;;;11.78;97.75;100317.34;1767531;79;21086;-71
2022/10/25 06:34:10;;;;;;;32.75;16.82;;;;;;;11.77;97.35;100318.88;1765191;79;21004;-71
2022/10/25 06:36:39;;;;;;;29.37;16.65;;;;;;;11.80;97.17;100315.76;1777258;79;22391;-70
2022/10/25 06:39:09;;;;;;;31.57;16.25;;;;;;;11.81;96.89;100316.92;1774993;79;21479;-69
2022/10/25 06:41:39;;;;;;;30.32;17.50;;;;;;;11.85;96.69;100322.31;1779467;79;21029;-70
2022/10/25 06:44:10;;;;;;;24.85;16.23;;;;;;;11.85;96.24;100325.59;1772103;79;21094;-70
2022/10/25 06:46:40;;;;;;;31.37;17.00;;;;;;;11.85;96.06;100331.08;1773687;79;21097;-69
2022/10/25 06:49:12;;;;;;;28.47;17.62;;;;;;;11.85;95.84;100326.96;1749885;79;21132;-70
2022/10/25 06:51:40;;;;;;;29.95;17.70;;;;;;;11.84;95.86;100322.00;1765524;79;21083;-70
2022/10/25 06:54:10;;;;;;;26.50;15.78;;;;;;;11.88;95.85;100317.78;1791277;79;21138;-70
2022/10/25 06:56:39;;;;;;;29.55;16.60;;;;;;;11.95;95.71;100320.54;1772360;79;21021;-70
2022/10/25 06:59:10;;;;;;;31.33;17.82;;;;;;;12.00;95.48;100321.60;1781304;79;21014;-69
2022/10/25 07:01:38;;;;;;;28.80;16.40;;;;;;;12.09;95.40;100315.38;1774990;79;21012;-69
2022/10/25 07:04:07;;;;;;;26.80;16.20;;;;;;;12.15;95.18;100309.05;1777849;79;20987;-71
2022/10/25 07:06:37;;;;;;;26.68;15.20;;;;;;;12.20;94.77;100301.55;1775577;79;21053;-67
2022/10/25 07:09:11;;;;;;;28.38;16.73;;;;;;;12.24;94.39;100303.66;1765963;78;21509;-70
2022/10/25 07:11:41;;;;;;;28.60;16.23;;;;;;;12.30;94.12;100308.31;1662684;83;21051;-68
2022/10/25 07:14:12;;;;;;;34.23;18.65;;;;;;;12.34;93.84;100309.58;1670736;84;21062;-69
2022/10/25 07:16:40;;;;;;;32.05;17.32;;;;;;;12.40;93.54;100308.45;1676264;83;21054;-70
2022/10/25 07:19:11;;;;;;;33.13;17.60;;;;;;;12.47;93.26;100299.67;1695554;82;21443;-69
2022/10/25 07:21:39;;;;;;;33.40;18.37;;;;;;;12.53;92.88;100308.44;1685622;83;21094;-69
2022/10/25 07:24:10;;;;;;;38.33;19.25;;;;;;;12.59;92.63;100296.06;1690980;83;21174;-70
2022/10/25 07:26:39;;;;;;;37.55;19.65;;;;;;;12.68;92.36;100303.56;1664999;84;21153;-70
2022/10/25 07:29:09;;;;;;;39.48;19.20;;;;;;;12.76;92.09;100292.33;1683051;83;21516;-69
2022/10/25 07:31:44;;;;;;;38.48;17.55;;;;;;;12.85;91.64;100296.55;1681970;83;21622;-69
2022/10/25 07:34:14;;;;;;;35.28;18.10;;;;;;;12.96;91.23;100300.53;1633213;85;21146;-70
2022/10/25 07:36:44;;;;;;;29.02;16.77;;;;;;;13.10;90.71;100298.63;1764884;79;21021;-68
2022/10/25 07:39:15;;;;;;;34.15;18.20;;;;;;;13.24;90.14;100290.66;1768580;79;22255;-70
2022/10/25 07:41:43;;;;;;;28.30;16.70;;;;;;;13.38;89.40;100290.92;1789719;79;21001;-70
2022/10/25 07:44:12;;;;;;;24.30;15.00;;;;;;;13.49;87.99;100292.14;1767601;79;21066;-70
2022/10/25 07:46:44;;;;;;;31.07;16.87;;;;;;;13.55;87.37;100287.97;1775971;79;21059;-70
2022/10/25 07:49:14;;;;;;;28.15;16.32;;;;;;;13.61;86.76;100289.84;1791112;79;21501;-69
2022/10/25 07:51:43;;;;;;;31.12;16.35;;;;;;;13.64;86.35;100281.14;1769714;78;21031;-70
2022/10/25 07:54:15;;;;;;;37.90;15.48;;;;;;;13.71;85.99;100286.64;1765315;79;21113;-69
2022/10/25 07:56:47;;;;;;;32.70;15.73;;;;;;;13.75;85.49;100279.62;1771825;79;21097;-69
2022/10/25 07:59:17;;;;;;;26.77;15.40;;;;;;;13.79;84.91;100279.50;1791498;79;21061;-67
2022/10/25 08:01:51;;;;;;;27.50;14.75;;;;;;;13.82;85.00;100277.67;1780146;79;21471;-65
2022/10/25 08:04:22;;;;;;;29.10;16.07;;;;;;;13.89;84.83;100286.73;1739202;79;21132;-66
2022/10/25 08:06:53;;;;;;;28.25;15.18;;;;;;;13.95;84.46;100280.34;1784081;79;21145;-64
2022/10/25 08:09:21;;;;;;;25.12;14.78;;;;;;;14.03;84.33;100271.49;1796097;79;21097;-64
2022/10/25 08:11:52;;;;;;;27.35;14.93;;;;;;;14.09;83.94;100270.59;1776944;79;21039;-66
2022/10/25 08:14:21;;;;;;;26.10;16.12;;;;;;;14.15;83.59;100265.03;1776433;78;21094;-64
2022/10/25 08:16:51;;;;;;;27.30;16.90;;;;;;;14.23;83.51;100260.62;1762233;80;21066;-64
2022/10/25 08:19:22;;;;;;;28.70;16.48;;;;;;;14.32;83.29;100265.34;1780163;79;21442;-65
2022/10/25 08:21:52;;;;;;;26.57;15.75;;;;;;;14.38;83.01;100265.82;1772982;79;21054;-63
2022/10/25 08:24:24;;;;;;;33.55;16.60;;;;;;;14.46;82.90;100266.10;1792329;79;21097;-64
2022/10/25 08:26:53;;;;;;;30.48;17.40;;;;;;;14.52;82.40;100261.06;1744188;80;21047;-64
2022/10/25 08:29:23;;;;;;;26.30;16.52;;;;;;;14.56;82.10;100263.13;1773583;79;21477;-64
2022/10/25 08:31:52;;;;;;;32.45;17.55;;;;;;;14.56;81.80;100256.23;1763349;80;21037;-65
2022/10/25 08:34:21;;;;;;;33.65;16.87;;;;;;;14.55;81.53;100255.09;1782187;79;21043;-64
2022/10/25 08:36:51;;;;;;;34.10;16.80;;;;;;;14.50;81.28;100246.12;1782497;79;21084;-64
2022/10/25 08:39:19;;;;;;;31.05;17.45;;;;;;;14.47;81.50;100251.25;1764211;79;21141;-66
2022/10/25 08:41:58;;;;;;;28.77;16.42;;;;;;;14.47;81.53;100256.77;1773431;79;21013;-64
2022/10/25 08:44:54;;;;;;;29.87;16.50;;;;;;;14.45;81.49;100253.39;1779864;79;21053;-65
2022/10/25 08:47:33;;;;;;;33.75;18.17;;;;;;;14.46;81.77;100249.56;1722256;82;21029;-64
2022/10/25 08:50:15;;;;;;;32.67;16.17;;;;;;;14.48;81.62;100257.91;1770182;78;21419;-63
2022/10/25 08:52:57;;;;;;;34.15;17.62;;;;;;;14.51;81.84;100256.61;1770799;80;21105;-65
2022/10/25 08:55:27;;;;;;;39.18;16.67;;;;;;;14.54;81.79;100252.02;1790685;79;21025;-65
2022/10/25 08:57:57;;;;;;;33.08;15.98;;;;;;;14.57;81.84;100254.33;1778496;79;21053;-63
2022/10/25 09:00:31;;;;;;;26.77;15.98;;;;;;;14.58;81.62;100249.97;1777440;79;21085;-65
2022/10/25 09:03:00;;;;;;;30.17;16.17;;;;;;;14.58;81.70;100244.98;1775814;78;20999;-63
2022/10/25 09:06:11;;;;;;;31.25;14.98;;;;;;;14.59;81.43;100248.05;1771894;79;21520;-63
2022/10/25 09:09:09;;;;;;;22.45;13.32;;;;;;;14.59;81.51;100248.05;1787227;78;21132;-65
2022/10/25 09:12:11;;;;;;;23.57;14.05;;;;;;;14.63;81.34;100250.66;1678792;84;21142;-75
2022/10/25 09:15:13;;;;;;;22.75;13.08;;;;;;;14.64;81.34;100249.59;1680577;84;21482;-66
2022/10/25 09:17:51;;;;;;;23.62;13.55;;;;;;;14.67;81.13;100244.99;1686099;83;21571;-63
2022/10/25 09:20:32;;;;;;;20.02;12.15;;;;;;;14.68;80.82;100244.45;1685570;84;21058;-65
2022/10/25 09:23:12;;;;;;;18.80;11.70;;;;;;;14.69;80.65;100240.09;1649172;86;21083;-65
2022/10/25 09:26:04;;;;;;;20.02;12.68;;;;;;;14.68;80.52;100234.80;1650253;85;21088;-65
2022/10/25 09:29:01;;;;;;;21.82;11.83;;;;;;;14.66;80.28;100236.41;1650079;85;21060;-65
2022/10/25 09:31:33;;;;;;;19.67;12.50;;;;;;;14.64;80.31;100228.91;1775926;78;21035;-63
2022/10/25 09:34:05;;;;;;;20.25;12.10;;;;;;;14.65;80.21;100234.73;1741672;81;21011;-65
2022/10/25 09:36:43;;;;;;;19.32;12.33;;;;;;;14.64;79.98;100229.44;1681317;84;21131;-64
2022/10/25 09:39:35;;;;;;;20.47;12.23;;;;;;;14.63;79.89;100233.27;1689050;84;21475;-64
2022/10/25 09:42:25;;;;;;;19.65;11.80;;;;;;;14.62;79.79;100226.91;1677891;84;21486;-63
2022/10/25 09:44:55;;;;;;;;;;;;;;;14.61;79.86;100229.36;1684189;84;21152;-63
2022/10/25 09:47:45;;;;;;;18.75;11.03;;;;;;;14.61;79.87;100227.14;1675937;84;20211;-67
2022/10/25 09:50:25;;;;;;;19.65;11.43;;;;;;;14.58;79.91;100214.66;1679863;84;21109;-67
2022/10/25 09:53:14;;;;;;;18.65;11.30;;;;;;;14.59;79.89;100223.23;1664130;85;21071;-64
2022/10/25 09:55:57;;;;;;;18.95;11.10;;;;;;;14.59;80.00;100220.47;1771592;79;21023;-65
2022/10/25 09:58:31;;;;;;;19.65;11.63;;;;;;;14.58;79.96;100225.69;1765447;79;21089;-65
2022/10/25 10:01:19;;;;;;;21.52;12.25;;;;;;;14.59;79.95;100225.98;1773664;79;21356;-63
2022/10/25 10:03:49;;;;;;;20.72;11.35;;;;;;;14.58;79.94;100224.30;1774754;79;20984;-63
2022/10/25 10:06:27;;;;;;;24.43;12.07;;;;;;;14.60;80.04;100223.55;1762359;80;21036;-63
2022/10/25 10:09:01;;;;;;;36.63;23.38;;;;;;;14.59;80.07;100217.72;1775380;79;21077;-66
2022/10/25 10:11:30;;;;;;;23.87;13.25;;;;;;;14.60;80.10;100223.55;1755425;79;21017;-63
2022/10/25 10:14:13;;;;;;;24.35;12.88;;;;;;;14.58;80.13;100222.92;1790016;78;21097;-65
2022/10/25 10:16:49;;;;;;;25.17;12.98;;;;;;;14.57;80.20;100221.23;1790881;78;21544;-64
2022/10/25 10:19:20;;;;;;;22.52;12.00;;;;;;;14.56;80.28;100224.53;1767386;79;21065;-64
2022/10/25 10:22:02;;;;;;;26.62;11.97;;;;;;;14.56;80.46;100225.07;1786926;79;21062;-65
2022/10/25 10:24:36;;;;;;;25.23;12.30;;;;;;;14.55;80.47;100222.00;1776243;79;21121;-65
2022/10/25 10:27:09;;;;;;;28.57;12.58;;;;;;;14.54;80.71;100213.42;1765005;79;21066;-65
2022/10/25 10:29:53;;;;;;;28.83;11.75;;;;;;;14.54;80.68;100214.80;1775492;79;21050;-70
2022/10/25 10:32:34;;;;;;;19.60;11.38;;;;;;;14.54;80.83;100211.52;1768279;79;21453;-65
2022/10/25 10:35:07;;;;;;;24.30;11.80;;;;;;;14.56;80.96;100210.75;1778788;78;21042;-65
2022/10/25 10:37:36;;;;;;;24.02;11.53;;;;;;;14.57;80.99;100212.97;1780684;78;21085;-65
2022/10/25 10:40:21;;;;;;;19.10;11.03;;;;;;;14.57;80.95;100215.72;1765715;80;21105;-66
2022/10/25 10:42:50;;;;;;;23.50;12.00;;;;;;;14.57;81.01;100217.10;1774166;79;21061;-64
2022/10/25 10:45:22;;;;;;;19.37;10.68;;;;;;;14.56;81.08;100215.42;1794892;79;21070;-63
2022/10/25 10:47:55;;;;;;;20.92;12.85;;;;;;;14.57;81.28;100212.97;1779641;79;21392;-68
2022/10/25 10:50:31;;;;;;;19.42;11.63;;;;;;;14.57;81.31;100207.45;1749391;79;21056;-69
2022/10/25 10:53:20;;;;;;;21.62;11.00;;;;;;;14.56;81.36;100212.12;1771617;79;21083;-69
2022/10/25 10:55:54;;;;;;;23.02;11.25;;;;;;;14.55;81.34;100206.84;1762818;79;21069;-69
2022/10/25 10:58:27;;;;;;;22.90;11.65;;;;;;;14.56;81.23;100207.14;1759311;79;21043;-69
2022/10/25 11:01:00;;;;;;;18.98;10.78;;;;;;;14.55;81.14;100200.79;1794530;79;21029;-65
2022/10/25 11:03:43;;;;;;;22.10;10.75;;;;;;;14.56;81.26;100201.62;1765250;79;21053;-62
2022/10/25 11:06:25;;;;;;;22.07;11.65;;;;;;;14.55;81.28;100199.95;1777165;79;21009;-65
2022/10/25 11:09:16;;;;;;;17.85;10.45;;;;;;;14.50;81.22;100193.73;1777173;79;21055;-65
2022/10/25 11:11:47;;;;;;;24.37;11.22;;;;;;;14.48;81.27;100195.04;1706087;82;21116;-63
2022/10/25 11:14:19;;;;;;;20.05;10.28;;;;;;;14.47;81.30;100193.36;1710469;81;21029;-66
2022/10/25 11:17:10;;;;;;;24.05;11.55;;;;;;;14.44;81.46;100188.30;1752720;81;21493;-63
2022/10/25 11:20:08;;;;;;;20.72;10.63;;;;;;;14.41;81.63;100185.43;1734865;81;21092;-63
2022/10/25 11:22:59;;;;;;;23.98;11.00;;;;;;;14.37;81.83;100191.62;1722107;81;21060;-64
2022/10/25 11:25:52;;;;;;;25.82;10.28;;;;;;;14.37;82.05;100193.00;1751254;81;21083;-63
2022/10/25 11:28:50;;;;;;;20.57;10.72;;;;;;;14.37;82.12;100197.98;1745887;79;21567;-63
2022/10/25 11:31:42;;;;;;;24.02;12.63;;;;;;;14.37;82.51;100192.47;1756016;79;21012;-63
2022/10/25 11:34:41;;;;;;;23.90;13.58;;;;;;;14.38;82.86;100198.83;1761790;81;21099;-63
2022/10/25 11:37:34;;;;;;;28.98;14.58;;;;;;;14.39;83.10;100199.97;1730474;81;21096;-64
2022/10/25 11:40:17;;;;;;;28.42;15.08;;;;;;;14.39;83.21;100199.13;1718349;82;21169;-65